Casper, WY

10:30 AM MDT on April 27, 2015 (GMT -0600)
RAWS | | Change Station
CLOSE
Current Station
Personal Weather Station
Location: Casper, WY
Elevation: 7740 ft
Nearby Weather Stations

Elev 7740 ft 42.71 °N, 106.35 °W | Updated 38 minutes ago

Overcast
Overcast
33 °F
Feels Like 33 °F
N
2
Wind Variable Wind from NNE
Gusts 7.0 mph

Today
High -- | Low -- °F
--% Chance of Precip.
Yesterday
High -- | Low -- °F
Precip. -- in
6:05 AM 8:01 PM
Waxing Gibbous, 66% visible
Pressure 30.36 in
Visibility 10.0 miles
Clouds Mostly Cloudy 1000 ft
Overcast 1400 ft
Windchill 33 °F
Dew Point 29 °F
Humidity 85%
Rainfall in
Snow Depth Not available.
UV 2 out of 12
Pollen .40 out of 12
Air Quality Not available.
Flu Activity Local Activity
METAR KCPR 271553Z 01007KT 10SM BKN010 OVC014 02/01 A3032 RMK AO2 SLP280 T00220006

More Conditions Fewer Conditions

Pressure 30.36 in
Visibility 10.0 miles
Clouds Mostly Cloudy 1000 ft
Overcast 1400 ft
Windchill 33 °F
Dew Point 29 °F
Humidity 85%
Rainfall in
Snow Depth Not available.
UV 2 out of 12
Pollen .40 out of 12
Air Quality Not available.
Flu Activity Local Activity
METAR KCPR 271553Z 01007KT 10SM BKN010 OVC014 02/01 A3032 RMK AO2 SLP280 T00220006

More Conditions Fewer Conditions

10-Day Weather Forecast

Almanac

Astronomy

Apr. 27, 2015 Rise Set
Actual Time
Civil Twilight
Nautical Twilight
Astronomical Twilight
Moon
Length of Visible Light
Length of Day
Tomorrow will be .
, % of the Moon is Illuminated

Today's Extremes

State Highs State Lows

Community

WunderPhotos

Upload Photos

1,817,336 photos uploaded!

WunderBlogs® & News

Nearby

Air Quality

  Air Quality AQ Index Pollutant
Not available.

Snow Depth

Station Depth Elevation

Earthquake Activity

City Distance Mag. Time & Date
Minimum magnitude displayed is 2.5.

Coastal Water Temperatures

Place Temperature

Stations

Nearby Weather Stations

Station Location Temp. Windchill Dew Point Humidity Wind Precip. Elev Updated Type